createdAt,value
2022-12-18T00:01:25.421Z,26.15
2022-12-18T00:03:54.364Z,19.33
2022-12-18T00:06:22.475Z,19.27
2022-12-18T00:08:49.781Z,34.03
2022-12-18T00:11:19.997Z,24.90
2022-12-18T00:13:47.437Z,27.63
2022-12-18T00:16:21.657Z,21.08
2022-12-18T00:18:50.730Z,14.50
2022-12-18T00:21:18.283Z,21.13
2022-12-18T00:23:46.288Z,16.35
2022-12-18T00:26:16.208Z,17.52
2022-12-18T00:28:44.123Z,9.27
2022-12-18T00:31:14.666Z,9.75
2022-12-18T00:33:42.240Z,12.65
2022-12-18T00:36:18.956Z,12.13
2022-12-18T00:38:46.780Z,24.48
2022-12-18T00:41:35.768Z,19.65
2022-12-18T00:44:03.659Z,17.70
2022-12-18T00:46:31.240Z,32.97
2022-12-18T00:48:58.428Z,20.00
2022-12-18T00:51:27.448Z,16.67
2022-12-18T00:53:54.729Z,19.07
2022-12-18T00:56:22.021Z,21.95
2022-12-18T00:58:49.556Z,28.38
2022-12-18T01:01:17.400Z,18.27
2022-12-18T01:03:46.164Z,18.95
2022-12-18T01:06:14.928Z,20.90
2022-12-18T01:08:42.316Z,17.70
2022-12-18T01:11:14.742Z,14.67
2022-12-18T01:13:42.307Z,15.52
2022-12-18T01:16:11.930Z,14.30
2022-12-18T01:18:39.360Z,16.40
2022-12-18T01:21:11.189Z,13.97
2022-12-18T01:23:39.052Z,17.38
2022-12-18T01:26:11.957Z,13.82
2022-12-18T01:28:39.186Z,18.75
2022-12-18T01:31:28.555Z,17.50
2022-12-18T01:33:56.582Z,11.00
2022-12-18T01:36:35.337Z,15.77
2022-12-18T01:39:05.673Z,12.52
2022-12-18T01:41:53.353Z,24.50
2022-12-18T01:44:51.485Z,11.80
2022-12-18T01:47:28.533Z,13.40
2022-12-18T01:49:57.897Z,11.13
2022-12-18T01:52:27.260Z,11.20
2022-12-18T01:54:55.526Z,13.27
2022-12-18T01:57:23.995Z,9.35
2022-12-18T01:59:54.653Z,21.02
2022-12-18T02:02:22.347Z,18.75
2022-12-18T02:04:49.834Z,17.98
2022-12-18T02:07:43.246Z,12.93
2022-12-18T02:10:28.234Z,16.25
2022-12-18T02:13:14.474Z,13.80
2022-12-18T02:16:03.869Z,16.52
2022-12-18T02:18:36.658Z,15.70
2022-12-18T02:21:23.138Z,17.98
2022-12-18T02:24:32.854Z,16.45
2022-12-18T02:27:06.886Z,16.10
2022-12-18T02:29:44.652Z,11.00
2022-12-18T02:32:17.507Z,12.70
2022-12-18T02:34:46.986Z,9.68
2022-12-18T02:37:18.572Z,13.97
2022-12-18T02:39:49.107Z,11.88
2022-12-18T02:42:17.562Z,9.73
2022-12-18T02:44:50.179Z,8.65
2022-12-18T02:47:21.196Z,8.45
2022-12-18T02:50:10.754Z,8.77
2022-12-18T02:52:43.991Z,7.38
2022-12-18T02:55:27.150Z,9.20
2022-12-18T02:57:59.415Z,7.85
2022-12-18T03:00:43.805Z,10.73
2022-12-18T03:03:15.672Z,10.00
2022-12-18T03:05:46.787Z,12.70
2022-12-18T03:08:20.135Z,6.55
2022-12-18T03:10:53.561Z,8.03
2022-12-18T03:13:32.901Z,9.68
2022-12-18T03:16:01.334Z,7.78
2022-12-18T03:18:37.907Z,10.65
2022-12-18T03:21:08.752Z,8.20
2022-12-18T03:23:45.847Z,9.25
2022-12-18T03:26:18.259Z,6.80
2022-12-18T03:28:51.048Z,7.93
2022-12-18T03:31:21.291Z,9.48
2022-12-18T03:33:56.836Z,11.83
2022-12-18T03:36:24.632Z,11.68
2022-12-18T03:38:52.280Z,13.95
2022-12-18T03:41:33.627Z,12.00
2022-12-18T03:44:12.606Z,13.40
2022-12-18T03:46:58.092Z,17.50
2022-12-18T03:49:37.440Z,14.25
2022-12-18T03:52:17.720Z,15.83
2022-12-18T03:54:46.464Z,15.90
2022-12-18T03:57:23.388Z,11.90
2022-12-18T03:59:58.304Z,12.18
2022-12-18T04:02:26.195Z,9.07
2022-12-18T04:04:57.677Z,10.05
2022-12-18T04:07:25.541Z,11.32
2022-12-18T04:09:57.420Z,11.47
2022-12-18T04:12:29.785Z,17.77
2022-12-18T04:14:56.915Z,10.35
2022-12-18T04:17:24.703Z,9.13
2022-12-18T04:19:51.769Z,7.33
2022-12-18T04:22:18.877Z,9.63
2022-12-18T04:24:45.943Z,7.65
2022-12-18T04:27:13.426Z,9.13
2022-12-18T04:29:40.649Z,8.70
2022-12-18T04:32:08.569Z,7.85
2022-12-18T04:34:35.629Z,8.18
2022-12-18T04:37:02.865Z,8.52
2022-12-18T04:39:29.915Z,6.77
2022-12-18T04:41:57.019Z,7.43
2022-12-18T04:44:24.262Z,8.55
2022-12-18T04:46:51.349Z,7.57
2022-12-18T04:49:18.489Z,5.47
2022-12-18T04:51:45.513Z,6.00
2022-12-18T04:54:12.567Z,16.52
2022-12-18T04:56:39.806Z,6.95
2022-12-18T04:59:06.947Z,7.72
2022-12-18T05:01:35.650Z,7.28
2022-12-18T05:04:03.728Z,5.50
2022-12-18T05:06:30.846Z,8.52
2022-12-18T05:08:58.317Z,7.95
2022-12-18T05:11:25.384Z,5.30
2022-12-18T05:13:52.448Z,5.20
2022-12-18T05:16:19.664Z,5.43
2022-12-18T05:18:46.824Z,14.93
2022-12-18T05:21:13.894Z,7.95
2022-12-18T05:23:41.277Z,7.40
2022-12-18T05:26:09.794Z,7.75
2022-12-18T05:28:37.327Z,7.30
2022-12-18T05:31:05.586Z,7.07
2022-12-18T05:33:34.955Z,10.32
2022-12-18T05:36:03.558Z,11.52
2022-12-18T05:38:32.423Z,8.73
2022-12-18T05:40:59.808Z,9.33
2022-12-18T05:43:28.091Z,12.57
2022-12-18T05:45:55.490Z,23.25
2022-12-18T05:48:22.899Z,16.97
2022-12-18T05:50:51.142Z,15.73
2022-12-18T05:53:20.228Z,13.90
2022-12-18T05:55:47.472Z,11.57
2022-12-18T05:58:15.243Z,17.13
2022-12-18T06:00:45.068Z,14.18
2022-12-18T06:03:12.899Z,11.80
2022-12-18T06:05:45.681Z,11.90
2022-12-18T06:08:14.050Z,8.67
2022-12-18T06:10:41.965Z,10.50
2022-12-18T06:13:09.523Z,7.30
2022-12-18T06:15:39.829Z,8.35
2022-12-18T06:18:06.907Z,7.82
2022-12-18T06:20:34.553Z,5.80
2022-12-18T06:23:01.663Z,9.63
2022-12-18T06:25:28.728Z,7.70
2022-12-18T06:27:55.799Z,20.52
2022-12-18T06:30:23.096Z,15.47
2022-12-18T06:32:56.324Z,8.32
2022-12-18T06:35:27.007Z,11.18
2022-12-18T06:37:54.040Z,8.10
2022-12-18T06:40:21.425Z,7.50
2022-12-18T06:42:48.502Z,10.15
2022-12-18T06:45:15.701Z,12.30
2022-12-18T06:47:42.782Z,9.13
2022-12-18T06:50:10.249Z,17.95
2022-12-18T06:52:37.754Z,17.73
2022-12-18T06:55:05.543Z,11.52
2022-12-18T06:57:32.609Z,15.40
2022-12-18T06:59:59.653Z,20.48
2022-12-18T07:02:26.816Z,21.55
2022-12-18T07:04:53.909Z,19.73
2022-12-18T07:07:20.957Z,14.43
2022-12-18T07:09:48.019Z,13.90
2022-12-18T07:12:15.093Z,10.52
2022-12-18T07:14:42.165Z,7.97
2022-12-18T07:17:09.351Z,10.82
2022-12-18T07:19:36.530Z,10.63
2022-12-18T07:22:03.599Z,11.50
2022-12-18T07:24:33.041Z,10.75
2022-12-18T07:27:00.089Z,8.73
2022-12-18T07:29:27.193Z,9.80
2022-12-18T07:31:54.356Z,9.88
2022-12-18T07:34:21.529Z,12.63
2022-12-18T07:36:48.651Z,18.00
2022-12-18T07:39:15.766Z,25.42
2022-12-18T07:41:47.381Z,17.42
2022-12-18T07:44:14.715Z,18.73
2022-12-18T07:46:41.801Z,20.98
2022-12-18T07:49:08.938Z,16.13
2022-12-18T07:51:35.986Z,17.85
2022-12-18T07:54:03.059Z,18.27
2022-12-18T07:56:31.443Z,18.25
2022-12-18T07:58:59.743Z,14.25
2022-12-18T08:01:27.933Z,13.57
2022-12-18T08:03:55.234Z,11.10
2022-12-18T08:06:24.124Z,8.25
2022-12-18T08:08:56.433Z,10.33
2022-12-18T08:11:26.434Z,10.35
2022-12-18T08:13:53.607Z,10.77
2022-12-18T08:16:21.658Z,11.90
2022-12-18T08:18:49.516Z,11.77
2022-12-18T08:21:25.668Z,33.50
2022-12-18T08:23:54.571Z,18.33
2022-12-18T08:26:22.644Z,21.67
2022-12-18T08:28:51.160Z,42.05
2022-12-18T08:31:19.531Z,37.08
2022-12-18T08:33:50.277Z,18.48
2022-12-18T08:36:18.039Z,19.45
2022-12-18T08:38:45.075Z,13.82
2022-12-18T08:41:13.871Z,13.95
2022-12-18T08:44:00.041Z,16.15
2022-12-18T08:46:32.159Z,15.18
2022-12-18T08:48:59.321Z,9.90
2022-12-18T08:51:26.579Z,13.55
2022-12-18T08:53:53.651Z,13.33
2022-12-18T08:56:20.722Z,10.27
2022-12-18T08:58:47.781Z,26.27
2022-12-18T09:01:15.114Z,13.75
2022-12-18T09:03:42.834Z,14.15
2022-12-18T09:06:10.275Z,15.00
2022-12-18T09:08:40.487Z,15.38
2022-12-18T09:11:26.698Z,15.93
2022-12-18T09:13:56.105Z,17.67
2022-12-18T09:16:30.319Z,14.70
2022-12-18T09:19:02.810Z,11.70
2022-12-18T09:21:34.792Z,18.63
2022-12-18T09:24:04.346Z,12.50
2022-12-18T09:26:32.337Z,13.00
2022-12-18T09:28:59.377Z,11.85
2022-12-18T09:31:26.577Z,10.80
2022-12-18T09:33:55.334Z,11.75
2022-12-18T09:36:22.379Z,12.30
2022-12-18T09:38:49.417Z,11.53
2022-12-18T09:41:54.437Z,12.37
2022-12-18T09:44:28.741Z,12.73
2022-12-18T09:47:13.955Z,12.05
2022-12-18T09:49:46.501Z,13.35
2022-12-18T09:52:31.402Z,12.10
2022-12-18T09:55:11.629Z,15.83
2022-12-18T09:57:46.106Z,16.40
2022-12-18T10:00:19.958Z,27.10
2022-12-18T10:02:47.841Z,20.40
2022-12-18T10:05:18.438Z,31.40
2022-12-18T10:07:58.274Z,26.90
2022-12-18T10:10:31.522Z,33.55
2022-12-18T10:13:16.512Z,29.30
2022-12-18T10:15:53.025Z,30.07
2022-12-18T10:18:29.370Z,31.33
2022-12-18T10:21:04.636Z,26.27
2022-12-18T10:23:48.199Z,20.17
2022-12-18T10:26:15.762Z,19.93
2022-12-18T10:28:45.197Z,19.35
2022-12-18T10:31:21.163Z,19.60
2022-12-18T10:33:54.575Z,19.27
2022-12-18T10:36:24.805Z,18.83
2022-12-18T10:38:52.713Z,21.23
2022-12-18T10:41:20.026Z,17.02
2022-12-18T10:43:49.355Z,12.87
2022-12-18T10:46:21.868Z,17.40
2022-12-18T10:48:53.800Z,14.63
2022-12-18T10:51:34.459Z,16.40
2022-12-18T10:54:16.833Z,18.58
2022-12-18T10:56:44.838Z,28.25
2022-12-18T10:59:16.246Z,20.50
2022-12-18T11:01:58.681Z,18.00
2022-12-18T11:04:31.939Z,22.75
2022-12-18T11:07:09.404Z,16.27
2022-12-18T11:09:38.040Z,20.52
2022-12-18T11:12:17.711Z,21.37
2022-12-18T11:14:51.347Z,16.42
2022-12-18T11:17:31.410Z,20.55
2022-12-18T11:20:00.857Z,18.05
2022-12-18T11:22:30.372Z,13.20
2022-12-18T11:25:33.509Z,15.73
2022-12-18T11:28:05.900Z,13.57
2022-12-18T11:30:35.556Z,13.63
2022-12-18T11:33:22.656Z,13.98
2022-12-18T11:35:53.757Z,14.30
2022-12-18T11:38:27.039Z,16.38
2022-12-18T11:41:06.143Z,23.20
2022-12-18T11:43:45.040Z,24.42
2022-12-18T11:46:19.986Z,33.47
2022-12-18T11:48:57.804Z,115.68
2022-12-18T11:51:44.292Z,62.42
2022-12-18T11:54:15.155Z,69.07
2022-12-18T11:57:17.333Z,79.22
2022-12-18T12:00:02.338Z,64.10
2022-12-18T12:02:53.379Z,69.53
2022-12-18T12:05:32.018Z,74.17
2022-12-18T12:08:23.980Z,69.30
2022-12-18T12:11:04.401Z,76.97
2022-12-18T12:13:49.708Z,91.05
2022-12-18T12:16:32.447Z,68.47
2022-12-18T12:19:16.505Z,50.30
2022-12-18T12:21:54.641Z,38.78
2022-12-18T12:24:50.460Z,29.87
2022-12-18T12:27:43.856Z,44.58
2022-12-18T12:30:22.104Z,24.13
2022-12-18T12:32:57.173Z,42.03
2022-12-18T12:36:07.949Z,74.25
2022-12-18T12:38:45.660Z,17.52
2022-12-18T12:41:49.117Z,45.88
2022-12-18T12:44:23.047Z,26.67
2022-12-18T12:46:56.057Z,37.83
2022-12-18T12:49:29.710Z,28.27
2022-12-18T12:52:04.492Z,46.70
2022-12-18T12:54:33.655Z,19.42
2022-12-18T12:57:10.462Z,14.35
2022-12-18T12:59:50.927Z,13.07
2022-12-18T13:02:32.219Z,15.88
2022-12-18T13:05:04.681Z,12.93
2022-12-18T13:07:42.573Z,20.83
2022-12-18T13:10:20.598Z,19.50
2022-12-18T13:12:56.575Z,32.13
2022-12-18T13:15:27.129Z,24.75
2022-12-18T13:18:21.517Z,17.07
2022-12-18T13:21:19.792Z,29.23
2022-12-18T13:23:47.270Z,49.87
2022-12-18T13:26:17.171Z,40.95
2022-12-18T13:28:47.015Z,61.20
2022-12-18T13:31:42.550Z,18.83
2022-12-18T13:34:27.442Z,7.00
2022-12-18T13:37:17.566Z,6.35
2022-12-18T13:39:44.842Z,11.77
2022-12-18T13:42:31.912Z,24.95
2022-12-18T13:44:59.234Z,25.55
2022-12-18T13:47:41.123Z,75.65
2022-12-18T13:50:27.716Z,135.80
2022-12-18T13:52:59.675Z,102.63
2022-12-18T13:55:27.496Z,137.75
2022-12-18T13:58:05.953Z,92.00
2022-12-18T14:00:33.105Z,112.22
2022-12-18T14:03:01.422Z,66.32
2022-12-18T14:05:32.339Z,127.35
2022-12-18T14:08:07.048Z,102.25
2022-12-18T14:10:48.399Z,90.93
2022-12-18T14:13:28.993Z,85.95
2022-12-18T14:15:57.784Z,50.15
2022-12-18T14:18:55.317Z,75.57
2022-12-18T14:21:27.714Z,70.20
2022-12-18T14:24:19.689Z,62.35
2022-12-18T14:26:50.510Z,53.42
2022-12-18T14:29:31.750Z,45.22
2022-12-18T14:32:16.544Z,47.45
2022-12-18T14:34:55.047Z,53.60
2022-12-18T14:37:27.881Z,54.35
2022-12-18T14:40:10.662Z,41.97
2022-12-18T14:42:38.641Z,42.97
2022-12-18T14:45:43.134Z,40.05
2022-12-18T14:48:35.572Z,37.22
2022-12-18T14:51:11.668Z,36.30
2022-12-18T14:53:44.527Z,33.83
2022-12-18T14:56:21.373Z,30.23
2022-12-18T14:59:01.708Z,26.90
2022-12-18T15:01:38.369Z,29.55
2022-12-18T15:04:23.318Z,28.42
2022-12-18T15:07:05.577Z,28.50
2022-12-18T15:09:32.785Z,28.42
2022-12-18T15:12:02.081Z,29.83
2022-12-18T15:14:40.977Z,23.95
2022-12-18T15:17:20.694Z,33.37
2022-12-18T15:19:49.915Z,33.67
2022-12-18T15:22:21.505Z,25.17
2022-12-18T15:24:50.163Z,29.13
2022-12-18T15:27:25.258Z,23.02
2022-12-18T15:30:01.722Z,29.23
2022-12-18T15:32:28.759Z,29.10
2022-12-18T15:35:16.785Z,30.98
2022-12-18T15:37:44.510Z,24.35
2022-12-18T15:40:17.447Z,23.02
2022-12-18T15:43:03.895Z,28.65
2022-12-18T15:45:31.057Z,25.20
2022-12-18T15:47:58.223Z,19.63
2022-12-18T15:50:26.010Z,19.27
2022-12-18T15:52:56.359Z,27.37
2022-12-18T15:55:43.831Z,18.35
2022-12-18T15:58:12.949Z,17.33
2022-12-18T16:00:41.610Z,19.25
2022-12-18T16:03:10.689Z,14.65
2022-12-18T16:05:38.035Z,15.45
2022-12-18T16:08:05.168Z,12.77
2022-12-18T16:10:32.283Z,12.17
2022-12-18T16:12:59.407Z,15.88
2022-12-18T16:15:26.512Z,19.15
2022-12-18T16:17:53.683Z,18.75
2022-12-18T16:20:22.708Z,19.15
2022-12-18T16:22:50.565Z,19.48
2022-12-18T16:25:27.687Z,13.95
2022-12-18T16:27:56.135Z,15.35
2022-12-18T16:30:27.207Z,17.07
2022-12-18T16:32:56.043Z,14.40
2022-12-18T16:35:25.685Z,12.77
2022-12-18T16:37:53.108Z,20.08
2022-12-18T16:40:20.576Z,18.42
2022-12-18T16:42:47.667Z,15.55
2022-12-18T16:45:17.227Z,15.48
2022-12-18T16:47:44.860Z,14.90
2022-12-18T16:50:12.604Z,16.48
2022-12-18T16:52:40.079Z,15.93
2022-12-18T16:55:07.886Z,12.50
2022-12-18T16:57:35.011Z,9.38
2022-12-18T17:00:05.689Z,14.32
2022-12-18T17:02:33.492Z,11.30
2022-12-18T17:05:00.861Z,13.30
2022-12-18T17:07:28.760Z,10.55
2022-12-18T17:09:56.187Z,35.05
2022-12-18T17:12:23.909Z,13.77
2022-12-18T17:14:50.993Z,21.05
2022-12-18T17:17:21.776Z,18.98
2022-12-18T17:19:51.104Z,17.25
2022-12-18T17:22:18.684Z,13.75
2022-12-18T17:24:47.126Z,12.52
2022-12-18T17:27:14.379Z,13.87
2022-12-18T17:29:47.345Z,14.43
2022-12-18T17:32:17.074Z,16.98
2022-12-18T17:34:44.215Z,14.07
2022-12-18T17:37:11.348Z,15.70
2022-12-18T17:39:38.819Z,14.88
2022-12-18T17:42:06.703Z,19.10
2022-12-18T17:44:35.049Z,22.55
2022-12-18T17:47:02.831Z,23.08
2022-12-18T17:49:30.919Z,20.02
2022-12-18T17:51:57.960Z,24.98
2022-12-18T17:54:25.013Z,21.08
2022-12-18T17:56:52.065Z,13.32
2022-12-18T17:59:19.132Z,15.65
2022-12-18T18:01:46.469Z,13.00
2022-12-18T18:04:14.566Z,10.93
2022-12-18T18:06:41.744Z,12.05
2022-12-18T18:09:15.934Z,12.95
2022-12-18T18:12:05.390Z,12.90
2022-12-18T18:14:32.981Z,10.38
2022-12-18T18:17:04.706Z,10.57
2022-12-18T18:19:33.401Z,12.80
2022-12-18T18:22:01.363Z,9.38
2022-12-18T18:24:28.482Z,10.23
2022-12-18T18:26:55.643Z,10.35
2022-12-18T18:29:26.642Z,6.95
2022-12-18T18:31:54.927Z,8.25
2022-12-18T18:34:24.571Z,8.23
2022-12-18T18:36:51.869Z,8.27
2022-12-18T18:39:19.484Z,11.90
2022-12-18T18:41:47.868Z,9.27
2022-12-18T18:44:16.862Z,8.13
2022-12-18T18:46:44.561Z,9.07
2022-12-18T18:49:13.522Z,9.73
2022-12-18T18:51:41.507Z,14.73
2022-12-18T18:54:09.263Z,16.27
2022-12-18T18:59:31.198Z,15.90
2022-12-18T19:02:04.017Z,16.00
2022-12-18T19:04:33.622Z,17.92
2022-12-18T19:07:01.069Z,22.15
2022-12-18T19:09:28.602Z,16.77
2022-12-18T19:12:14.913Z,26.70
2022-12-18T19:14:42.699Z,26.55
2022-12-18T19:17:10.344Z,25.50
2022-12-18T19:19:37.576Z,22.67
2022-12-18T19:22:07.669Z,23.15
2022-12-18T19:24:35.975Z,22.75
2022-12-18T19:27:03.091Z,20.70
2022-12-18T19:29:30.283Z,22.55
2022-12-18T19:31:57.576Z,23.17
2022-12-18T19:34:24.740Z,22.73
2022-12-18T19:36:56.512Z,17.90
2022-12-18T19:39:26.633Z,19.55
2022-12-18T19:41:53.705Z,18.00
2022-12-18T19:44:21.332Z,23.52
2022-12-18T19:46:51.388Z,17.88
2022-12-18T19:49:21.248Z,25.70
2022-12-18T19:51:50.448Z,22.40
2022-12-18T19:54:17.966Z,21.08
2022-12-18T19:56:45.940Z,29.33
2022-12-18T19:59:13.975Z,24.92
2022-12-18T20:01:41.392Z,25.98
2022-12-18T20:04:09.190Z,25.97
2022-12-18T20:06:47.703Z,24.70
2022-12-18T20:09:14.893Z,21.77
2022-12-18T20:11:42.709Z,20.50
2022-12-18T20:14:12.012Z,18.80
2022-12-18T20:16:39.941Z,18.70
2022-12-18T20:19:07.665Z,16.08
2022-12-18T20:21:34.937Z,13.10
2022-12-18T20:24:02.097Z,13.48
2022-12-18T20:26:29.415Z,12.98
2022-12-18T20:28:56.683Z,16.52
2022-12-18T20:31:24.340Z,14.70
2022-12-18T20:33:53.332Z,15.02
2022-12-18T20:36:25.969Z,13.97
2022-12-18T20:38:56.991Z,9.95
2022-12-18T20:41:25.409Z,8.55
2022-12-18T20:43:52.477Z,10.85
2022-12-18T20:46:20.357Z,10.27
2022-12-18T20:48:48.117Z,12.40
2022-12-18T20:51:17.939Z,13.95
2022-12-18T20:53:46.467Z,18.35
2022-12-18T20:56:18.900Z,13.13
2022-12-18T20:58:50.541Z,20.27
2022-12-18T21:01:23.229Z,14.68
2022-12-18T21:03:51.350Z,21.30
2022-12-18T21:06:20.633Z,18.48
2022-12-18T21:08:48.503Z,19.23
2022-12-18T21:11:44.349Z,17.70
2022-12-18T21:14:17.845Z,19.40
2022-12-18T21:16:45.522Z,21.15
2022-12-18T21:19:16.159Z,17.00
2022-12-18T21:21:43.859Z,15.90
2022-12-18T21:24:11.735Z,21.70
2022-12-18T21:26:45.799Z,24.02
2022-12-18T21:29:17.631Z,21.73
2022-12-18T21:31:45.375Z,25.80
2022-12-18T21:34:21.670Z,25.42
2022-12-18T21:36:49.383Z,24.43
2022-12-18T21:39:17.073Z,22.52
2022-12-18T21:42:03.872Z,25.95
2022-12-18T21:44:31.032Z,22.20
2022-12-18T21:47:20.824Z,19.30
2022-12-18T21:49:50.478Z,16.92
2022-12-18T21:52:17.606Z,16.83
2022-12-18T21:54:44.730Z,22.13
2022-12-18T21:57:13.313Z,16.77
2022-12-18T21:59:42.362Z,16.38
2022-12-18T22:02:19.818Z,16.65
2022-12-18T22:04:47.619Z,16.92
2022-12-18T22:07:16.957Z,13.43
2022-12-18T22:09:44.120Z,14.65
2022-12-18T22:12:13.236Z,14.55
2022-12-18T22:14:40.311Z,17.23
2022-12-18T22:17:07.368Z,22.83
2022-12-18T22:19:41.051Z,14.55
2022-12-18T22:22:10.059Z,16.45
2022-12-18T22:24:37.164Z,8.80
2022-12-18T22:27:04.258Z,11.25
2022-12-18T22:29:49.812Z,14.90
2022-12-18T22:32:17.811Z,7.72
2022-12-18T22:35:03.087Z,8.80
2022-12-18T22:37:33.201Z,9.23
2022-12-18T22:40:03.274Z,11.68
2022-12-18T22:42:31.569Z,17.27
2022-12-18T22:45:00.148Z,12.40
2022-12-18T22:47:30.170Z,17.37
2022-12-18T22:49:58.524Z,16.70
2022-12-18T22:52:25.853Z,17.83
2022-12-18T22:54:54.077Z,18.42
2022-12-18T22:57:22.756Z,11.73
2022-12-18T22:59:50.457Z,16.45
2022-12-18T23:02:18.696Z,24.35
2022-12-18T23:04:45.952Z,20.80
2022-12-18T23:07:13.154Z,20.77
2022-12-18T23:09:40.302Z,17.33
2022-12-18T23:12:07.856Z,17.50
2022-12-18T23:14:35.185Z,16.88
2022-12-18T23:17:02.231Z,18.00
2022-12-18T23:19:29.267Z,13.88
2022-12-18T23:21:58.575Z,16.13
2022-12-18T23:24:26.065Z,14.65
2022-12-18T23:26:53.179Z,13.32
2022-12-18T23:29:20.639Z,17.05
2022-12-18T23:31:47.742Z,17.55
2022-12-18T23:34:14.881Z,12.23
2022-12-18T23:36:46.446Z,17.67
2022-12-18T23:39:18.800Z,15.35
2022-12-18T23:41:59.862Z,14.50
2022-12-18T23:44:27.207Z,14.23
2022-12-18T23:46:54.619Z,21.88
2022-12-18T23:49:22.297Z,12.82
2022-12-18T23:51:49.359Z,11.02
2022-12-18T23:54:16.438Z,12.38
2022-12-18T23:56:43.654Z,10.15
2022-12-18T23:59:10.792Z,11.35
